Holyoke, CO (80734)

12:03 AM MDT on September 17, 2014 (GMT -0600)
Holyoke Municipal | Change Station
CLOSE
Current Station
Airport
Location: Holyoke AP, Holyoke, CO,
Elevation: 3730 ft
Nearby Weather Stations

Elev 3730 ft 40.57 °N, 102.28 °W | Updated 8 minutes ago

Clear
Clear
55 °F
Feels Like 55 °F
N
5
Wind Variable Wind from WSW

Today
High -- | Low -- °F
--% Chance of Precip.
Yesterday
High -- | Low -- °F
Precip. -- in
6:31 AM 6:54 PM
Last Quarter, 39% visible
Pressure 30.01 in
Visibility 10.0 miles
Clouds Clear
Dew Point 50 °F
Humidity 82%
Rainfall 0.00 in
Snow Depth Not available.
UV 0 out of 12
Pollen 6.10 out of 12
Air Quality Not available.
Flu Activity Not available.
METAR KHEQ 170555Z AUTO 25004KT 10SM CLR 13/10 A3001 RMK AO2

More Conditions Fewer Conditions

Pressure 30.01 in
Visibility 10.0 miles
Clouds Clear
Dew Point 50 °F
Humidity 82%
Rainfall 0.00 in
Snow Depth Not available.
UV 0 out of 12
Pollen 6.10 out of 12
Air Quality Not available.
Flu Activity Not available.
METAR KHEQ 170555Z AUTO 25004KT 10SM CLR 13/10 A3001 RMK AO2

More Conditions Fewer Conditions

10-Day Weather Forecast

Almanac

Astronomy

Sep. 17, 2014 Rise Set
Actual Time 6:31 AM MDT 6:54 PM MDT
Civil Twilight 6:04 AM MDT 7:21 PM MDT
Nautical Twilight 5:32 AM MDT 7:54 PM MDT
Astronomical Twilight 4:59 AM MDT 8:26 PM MDT
Moon 12:32 AM MDT 3:07 PM MDT
Length of Visible Light 13h 17m
Length of Day
12h 22m
Tomorrow will be 2m 40s shorter.
Last Quarter, 39% of the Moon is Illuminated
Today
Last Quarter
Sep 24
New
Oct 1
First Quarter
Oct 8
Full
Oct 15
Last Quarter

Today's Extremes

State Highs State Lows

Community

WunderPhotos

Upload Photos

1,753,969 photos uploaded!

Nearby

Snow Depth

Station Depth Elevation
Schofield Pass 0 in 10700 ft
Copper Mountain 0 in 10500 ft
Phantom Valley 0 in 9030 ft
Overland Reservoir 0 in 9880 ft
Brumley 0 in 10600 ft

Earthquake Activity

City Distance Mag. Time & Date
No recent earthquake activity has been reported nearby.
Minimum magnitude displayed is 2.5.

Coastal Water Temperatures

Place Temperature
No Stations Reporting

Nearby Weather Stations